sensor_id;sensor_type;location;lat;lon;timestamp;P1;durP1;ratioP1;P2;durP2;ratioP2
68947;SDS011;55996;49.546;7.400;2022-12-29T00:01:46;3.77;;;2.63;;
68947;SDS011;55996;49.546;7.400;2022-12-29T00:04:12;3.63;;;2.73;;
68947;SDS011;55996;49.546;7.400;2022-12-29T00:06:39;4.27;;;2.97;;
68947;SDS011;55996;49.546;7.400;2022-12-29T00:09:05;5.07;;;2.67;;
68947;SDS011;55996;49.546;7.400;2022-12-29T00:11:31;6.17;;;2.80;;
68947;SDS011;55996;49.546;7.400;2022-12-29T00:13:56;4.53;;;3.00;;
68947;SDS011;55996;49.546;7.400;2022-12-29T00:16:40;3.13;;;2.70;;
68947;SDS011;55996;49.546;7.400;2022-12-29T00:19:07;3.57;;;2.67;;
68947;SDS011;55996;49.546;7.400;2022-12-29T00:21:53;5.60;;;2.70;;
68947;SDS011;55996;49.546;7.400;2022-12-29T00:24:37;3.47;;;2.70;;
68947;SDS011;55996;49.546;7.400;2022-12-29T00:27:21;6.97;;;3.00;;
68947;SDS011;55996;49.546;7.400;2022-12-29T00:30:08;5.07;;;3.07;;
68947;SDS011;55996;49.546;7.400;2022-12-29T00:32:54;5.87;;;2.70;;
68947;SDS011;55996;49.546;7.400;2022-12-29T00:35:38;5.17;;;3.00;;
68947;SDS011;55996;49.546;7.400;2022-12-29T00:38:09;4.70;;;2.70;;
68947;SDS011;55996;49.546;7.400;2022-12-29T00:40:54;3.70;;;2.80;;
68947;SDS011;55996;49.546;7.400;2022-12-29T00:43:38;7.03;;;2.87;;
68947;SDS011;55996;49.546;7.400;2022-12-29T00:46:22;4.67;;;2.90;;
68947;SDS011;55996;49.546;7.400;2022-12-29T00:48:47;3.97;;;2.63;;
68947;SDS011;55996;49.546;7.400;2022-12-29T00:51:31;4.40;;;3.10;;
68947;SDS011;55996;49.546;7.400;2022-12-29T00:53:56;5.03;;;3.10;;
68947;SDS011;55996;49.546;7.400;2022-12-29T00:56:22;4.13;;;2.90;;
68947;SDS011;55996;49.546;7.400;2022-12-29T00:58:47;4.53;;;3.47;;
68947;SDS011;55996;49.546;7.400;2022-12-29T01:01:13;4.67;;;2.67;;
68947;SDS011;55996;49.546;7.400;2022-12-29T01:03:39;3.13;;;2.60;;
68947;SDS011;55996;49.546;7.400;2022-12-29T01:06:05;5.97;;;2.60;;
68947;SDS011;55996;49.546;7.400;2022-12-29T01:08:32;3.83;;;2.53;;
68947;SDS011;55996;49.546;7.400;2022-12-29T01:11:01;5.83;;;2.80;;
68947;SDS011;55996;49.546;7.400;2022-12-29T01:13:32;4.00;;;2.97;;
68947;SDS011;55996;49.546;7.400;2022-12-29T01:15:58;3.97;;;3.00;;
68947;SDS011;55996;49.546;7.400;2022-12-29T01:18:24;3.93;;;2.97;;
68947;SDS011;55996;49.546;7.400;2022-12-29T01:20:50;6.33;;;2.60;;
68947;SDS011;55996;49.546;7.400;2022-12-29T01:23:16;5.30;;;2.77;;
68947;SDS011;55996;49.546;7.400;2022-12-29T01:25:42;3.90;;;2.37;;
68947;SDS011;55996;49.546;7.400;2022-12-29T01:28:07;3.27;;;2.57;;
68947;SDS011;55996;49.546;7.400;2022-12-29T01:30:35;3.80;;;2.20;;
68947;SDS011;55996;49.546;7.400;2022-12-29T01:33:01;2.43;;;2.23;;
68947;SDS011;55996;49.546;7.400;2022-12-29T01:35:27;5.43;;;2.30;;
68947;SDS011;55996;49.546;7.400;2022-12-29T01:37:52;5.77;;;2.30;;
68947;SDS011;55996;49.546;7.400;2022-12-29T01:40:18;2.50;;;2.00;;
68947;SDS011;55996;49.546;7.400;2022-12-29T01:42:44;2.33;;;1.93;;
68947;SDS011;55996;49.546;7.400;2022-12-29T01:45:10;2.97;;;2.30;;
68947;SDS011;55996;49.546;7.400;2022-12-29T01:50:16;2.47;;;1.87;;
68947;SDS011;55996;49.546;7.400;2022-12-29T01:52:44;2.83;;;1.80;;
68947;SDS011;55996;49.546;7.400;2022-12-29T01:55:19;1.80;;;1.60;;
68947;SDS011;55996;49.546;7.400;2022-12-29T01:57:46;3.63;;;1.80;;
68947;SDS011;55996;49.546;7.400;2022-12-29T02:00:14;1.80;;;1.60;;
68947;SDS011;55996;49.546;7.400;2022-12-29T02:02:41;1.60;;;1.50;;
68947;SDS011;55996;49.546;7.400;2022-12-29T02:08:23;2.47;;;1.80;;
68947;SDS011;55996;49.546;7.400;2022-12-29T02:10:53;1.77;;;1.63;;
68947;SDS011;55996;49.546;7.400;2022-12-29T02:13:20;4.57;;;1.60;;
68947;SDS011;55996;49.546;7.400;2022-12-29T02:35:13;2.37;;;1.80;;
68947;SDS011;55996;49.546;7.400;2022-12-29T02:40:51;3.60;;;2.17;;
68947;SDS011;55996;49.546;7.400;2022-12-29T02:46:10;3.87;;;2.00;;
68947;SDS011;55996;49.546;7.400;2022-12-29T02:48:43;3.80;;;2.00;;
68947;SDS011;55996;49.546;7.400;2022-12-29T02:51:27;4.17;;;2.10;;
68947;SDS011;55996;49.546;7.400;2022-12-29T02:54:00;4.00;;;2.00;;
68947;SDS011;55996;49.546;7.400;2022-12-29T02:56:45;3.40;;;2.00;;
68947;SDS011;55996;49.546;7.400;2022-12-29T02:59:10;3.83;;;2.10;;
68947;SDS011;55996;49.546;7.400;2022-12-29T03:04:36;2.63;;;1.93;;
68947;SDS011;55996;49.546;7.400;2022-12-29T03:18:37;5.70;;;2.40;;
68947;SDS011;55996;49.546;7.400;2022-12-29T03:21:12;3.00;;;2.00;;
68947;SDS011;55996;49.546;7.400;2022-12-29T03:23:43;7.73;;;2.33;;
68947;SDS011;55996;49.546;7.400;2022-12-29T03:26:14;4.20;;;2.10;;
68947;SDS011;55996;49.546;7.400;2022-12-29T03:28:45;2.57;;;1.93;;
68947;SDS011;55996;49.546;7.400;2022-12-29T03:31:15;3.43;;;1.80;;
68947;SDS011;55996;49.546;7.400;2022-12-29T03:33:42;3.90;;;2.07;;
68947;SDS011;55996;49.546;7.400;2022-12-29T03:36:10;3.70;;;1.93;;
68947;SDS011;55996;49.546;7.400;2022-12-29T03:38:44;5.53;;;2.20;;
68947;SDS011;55996;49.546;7.400;2022-12-29T03:41:15;2.43;;;1.80;;
68947;SDS011;55996;49.546;7.400;2022-12-29T03:43:45;4.37;;;2.20;;
68947;SDS011;55996;49.546;7.400;2022-12-29T03:46:11;4.87;;;2.40;;
68947;SDS011;55996;49.546;7.400;2022-12-29T03:48:36;4.80;;;2.20;;
68947;SDS011;55996;49.546;7.400;2022-12-29T03:51:01;2.60;;;2.10;;
68947;SDS011;55996;49.546;7.400;2022-12-29T03:53:27;3.27;;;2.40;;
68947;SDS011;55996;49.546;7.400;2022-12-29T03:55:52;5.40;;;2.20;;
68947;SDS011;55996;49.546;7.400;2022-12-29T03:58:18;2.63;;;2.00;;
68947;SDS011;55996;49.546;7.400;2022-12-29T04:00:43;6.83;;;2.20;;
68947;SDS011;55996;49.546;7.400;2022-12-29T04:03:08;3.63;;;2.07;;
68947;SDS011;55996;49.546;7.400;2022-12-29T04:05:34;6.63;;;2.27;;
68947;SDS011;55996;49.546;7.400;2022-12-29T04:07:59;5.83;;;2.30;;
68947;SDS011;55996;49.546;7.400;2022-12-29T04:10:25;3.57;;;2.10;;
68947;SDS011;55996;49.546;7.400;2022-12-29T04:12:50;2.10;;;1.90;;
68947;SDS011;55996;49.546;7.400;2022-12-29T04:15:16;2.43;;;1.77;;
68947;SDS011;55996;49.546;7.400;2022-12-29T04:17:41;4.60;;;1.90;;
68947;SDS011;55996;49.546;7.400;2022-12-29T04:20:07;3.47;;;2.23;;
68947;SDS011;55996;49.546;7.400;2022-12-29T04:23:04;3.17;;;2.10;;
68947;SDS011;55996;49.546;7.400;2022-12-29T04:25:31;3.50;;;2.00;;
68947;SDS011;55996;49.546;7.400;2022-12-29T04:27:57;3.90;;;1.80;;
68947;SDS011;55996;49.546;7.400;2022-12-29T04:30:22;3.23;;;1.93;;
68947;SDS011;55996;49.546;7.400;2022-12-29T04:32:48;2.40;;;2.00;;
68947;SDS011;55996;49.546;7.400;2022-12-29T04:35:13;4.20;;;1.93;;
68947;SDS011;55996;49.546;7.400;2022-12-29T04:37:39;3.40;;;2.00;;
68947;SDS011;55996;49.546;7.400;2022-12-29T04:40:05;2.20;;;1.97;;
68947;SDS011;55996;49.546;7.400;2022-12-29T04:42:31;3.33;;;2.13;;
68947;SDS011;55996;49.546;7.400;2022-12-29T04:44:56;3.00;;;1.87;;
68947;SDS011;55996;49.546;7.400;2022-12-29T04:47:21;3.33;;;2.10;;
68947;SDS011;55996;49.546;7.400;2022-12-29T04:49:47;3.90;;;1.87;;
68947;SDS011;55996;49.546;7.400;2022-12-29T04:52:12;2.30;;;1.63;;
68947;SDS011;55996;49.546;7.400;2022-12-29T04:54:37;2.23;;;1.83;;
68947;SDS011;55996;49.546;7.400;2022-12-29T04:57:04;2.23;;;1.73;;
68947;SDS011;55996;49.546;7.400;2022-12-29T04:59:30;3.53;;;1.63;;
68947;SDS011;55996;49.546;7.400;2022-12-29T05:01:55;2.80;;;2.10;;
68947;SDS011;55996;49.546;7.400;2022-12-29T05:04:20;2.50;;;2.00;;
68947;SDS011;55996;49.546;7.400;2022-12-29T05:06:46;2.63;;;1.90;;
68947;SDS011;55996;49.546;7.400;2022-12-29T05:09:11;2.70;;;2.00;;
68947;SDS011;55996;49.546;7.400;2022-12-29T05:11:37;2.73;;;1.90;;
68947;SDS011;55996;49.546;7.400;2022-12-29T05:14:02;2.83;;;1.87;;
68947;SDS011;55996;49.546;7.400;2022-12-29T05:16:27;3.00;;;1.80;;
68947;SDS011;55996;49.546;7.400;2022-12-29T05:18:53;3.53;;;1.87;;
68947;SDS011;55996;49.546;7.400;2022-12-29T05:21:18;2.30;;;1.60;;
68947;SDS011;55996;49.546;7.400;2022-12-29T05:23:44;2.43;;;1.67;;
68947;SDS011;55996;49.546;7.400;2022-12-29T05:26:09;2.77;;;2.20;;
68947;SDS011;55996;49.546;7.400;2022-12-29T05:28:34;2.13;;;1.80;;
68947;SDS011;55996;49.546;7.400;2022-12-29T05:31:00;3.73;;;1.80;;
68947;SDS011;55996;49.546;7.400;2022-12-29T05:33:25;2.63;;;2.00;;
68947;SDS011;55996;49.546;7.400;2022-12-29T05:35:51;2.17;;;1.77;;
68947;SDS011;55996;49.546;7.400;2022-12-29T05:38:16;3.43;;;2.10;;
68947;SDS011;55996;49.546;7.400;2022-12-29T05:40:42;3.10;;;1.87;;
68947;SDS011;55996;49.546;7.400;2022-12-29T05:43:08;2.60;;;1.97;;
68947;SDS011;55996;49.546;7.400;2022-12-29T05:45:35;3.23;;;2.10;;
68947;SDS011;55996;49.546;7.400;2022-12-29T05:48:00;3.50;;;2.20;;
68947;SDS011;55996;49.546;7.400;2022-12-29T05:50:26;2.30;;;1.80;;
68947;SDS011;55996;49.546;7.400;2022-12-29T05:52:51;3.23;;;1.87;;
68947;SDS011;55996;49.546;7.400;2022-12-29T05:55:17;3.13;;;2.23;;
68947;SDS011;55996;49.546;7.400;2022-12-29T05:57:42;3.33;;;2.03;;
68947;SDS011;55996;49.546;7.400;2022-12-29T06:00:08;2.50;;;1.97;;
68947;SDS011;55996;49.546;7.400;2022-12-29T06:02:34;3.27;;;1.93;;
68947;SDS011;55996;49.546;7.400;2022-12-29T06:04:59;4.30;;;2.10;;
68947;SDS011;55996;49.546;7.400;2022-12-29T06:07:24;3.97;;;2.30;;
68947;SDS011;55996;49.546;7.400;2022-12-29T06:09:50;4.33;;;2.00;;
68947;SDS011;55996;49.546;7.400;2022-12-29T06:12:15;3.03;;;1.90;;
68947;SDS011;55996;49.546;7.400;2022-12-29T06:14:41;2.10;;;1.90;;
68947;SDS011;55996;49.546;7.400;2022-12-29T06:17:07;3.20;;;2.60;;
68947;SDS011;55996;49.546;7.400;2022-12-29T06:19:32;5.57;;;2.10;;
68947;SDS011;55996;49.546;7.400;2022-12-29T06:21:58;3.73;;;2.43;;
68947;SDS011;55996;49.546;7.400;2022-12-29T06:24:23;3.80;;;2.43;;
68947;SDS011;55996;49.546;7.400;2022-12-29T06:26:49;5.90;;;2.50;;
68947;SDS011;55996;49.546;7.400;2022-12-29T06:29:14;5.70;;;2.43;;
68947;SDS011;55996;49.546;7.400;2022-12-29T06:31:42;4.00;;;2.43;;
68947;SDS011;55996;49.546;7.400;2022-12-29T06:34:10;5.13;;;2.47;;
68947;SDS011;55996;49.546;7.400;2022-12-29T06:36:36;4.00;;;2.80;;
68947;SDS011;55996;49.546;7.400;2022-12-29T06:39:01;3.30;;;2.60;;
68947;SDS011;55996;49.546;7.400;2022-12-29T06:41:27;7.43;;;2.87;;
68947;SDS011;55996;49.546;7.400;2022-12-29T06:43:52;3.77;;;2.57;;
68947;SDS011;55996;49.546;7.400;2022-12-29T06:46:18;3.07;;;2.70;;
68947;SDS011;55996;49.546;7.400;2022-12-29T06:48:43;5.17;;;3.17;;
68947;SDS011;55996;49.546;7.400;2022-12-29T06:51:09;4.20;;;2.70;;
68947;SDS011;55996;49.546;7.400;2022-12-29T06:53:34;5.67;;;2.90;;
68947;SDS011;55996;49.546;7.400;2022-12-29T06:56:00;5.07;;;3.07;;
68947;SDS011;55996;49.546;7.400;2022-12-29T06:58:25;4.87;;;3.13;;
68947;SDS011;55996;49.546;7.400;2022-12-29T07:00:50;5.70;;;3.10;;
68947;SDS011;55996;49.546;7.400;2022-12-29T07:03:16;5.23;;;3.00;;
68947;SDS011;55996;49.546;7.400;2022-12-29T07:05:41;4.93;;;3.20;;
68947;SDS011;55996;49.546;7.400;2022-12-29T07:08:07;6.83;;;3.63;;
68947;SDS011;55996;49.546;7.400;2022-12-29T07:10:33;4.23;;;2.90;;
68947;SDS011;55996;49.546;7.400;2022-12-29T07:12:58;5.77;;;3.00;;
68947;SDS011;55996;49.546;7.400;2022-12-29T07:15:23;4.57;;;3.17;;
68947;SDS011;55996;49.546;7.400;2022-12-29T07:17:49;8.97;;;3.50;;
68947;SDS011;55996;49.546;7.400;2022-12-29T07:20:14;5.20;;;3.03;;
68947;SDS011;55996;49.546;7.400;2022-12-29T07:22:40;4.17;;;3.00;;
68947;SDS011;55996;49.546;7.400;2022-12-29T07:25:06;5.40;;;3.20;;
68947;SDS011;55996;49.546;7.400;2022-12-29T07:27:32;5.67;;;3.27;;
68947;SDS011;55996;49.546;7.400;2022-12-29T07:29:58;5.27;;;3.40;;
68947;SDS011;55996;49.546;7.400;2022-12-29T07:32:23;4.97;;;3.20;;
68947;SDS011;55996;49.546;7.400;2022-12-29T07:34:48;5.57;;;3.20;;
68947;SDS011;55996;49.546;7.400;2022-12-29T07:37:15;5.50;;;3.13;;
68947;SDS011;55996;49.546;7.400;2022-12-29T07:39:40;5.37;;;3.10;;
68947;SDS011;55996;49.546;7.400;2022-12-29T07:42:06;4.53;;;3.23;;
68947;SDS011;55996;49.546;7.400;2022-12-29T07:44:31;3.77;;;3.30;;
68947;SDS011;55996;49.546;7.400;2022-12-29T07:46:57;6.27;;;3.20;;
68947;SDS011;55996;49.546;7.400;2022-12-29T07:49:22;5.37;;;3.30;;
68947;SDS011;55996;49.546;7.400;2022-12-29T07:51:48;6.13;;;3.13;;
68947;SDS011;55996;49.546;7.400;2022-12-29T07:54:13;4.83;;;3.10;;
68947;SDS011;55996;49.546;7.400;2022-12-29T07:56:39;6.20;;;3.50;;
68947;SDS011;55996;49.546;7.400;2022-12-29T07:59:05;4.77;;;3.00;;
68947;SDS011;55996;49.546;7.400;2022-12-29T08:01:30;4.40;;;3.10;;
68947;SDS011;55996;49.546;7.400;2022-12-29T08:03:56;4.07;;;3.33;;
68947;SDS011;55996;49.546;7.400;2022-12-29T08:06:21;4.23;;;2.87;;
68947;SDS011;55996;49.546;7.400;2022-12-29T08:08:47;4.73;;;2.97;;
68947;SDS011;55996;49.546;7.400;2022-12-29T08:11:13;5.30;;;2.97;;
68947;SDS011;55996;49.546;7.400;2022-12-29T08:13:38;3.77;;;3.27;;
68947;SDS011;55996;49.546;7.400;2022-12-29T08:16:04;5.53;;;2.90;;
68947;SDS011;55996;49.546;7.400;2022-12-29T08:18:29;7.30;;;3.40;;
68947;SDS011;55996;49.546;7.400;2022-12-29T08:20:55;5.87;;;3.00;;
68947;SDS011;55996;49.546;7.400;2022-12-29T08:23:20;3.30;;;3.00;;
68947;SDS011;55996;49.546;7.400;2022-12-29T08:25:46;6.20;;;3.53;;
68947;SDS011;55996;49.546;7.400;2022-12-29T08:28:11;6.13;;;3.10;;
68947;SDS011;55996;49.546;7.400;2022-12-29T08:30:36;4.10;;;2.87;;
68947;SDS011;55996;49.546;7.400;2022-12-29T08:33:02;5.63;;;3.40;;
68947;SDS011;55996;49.546;7.400;2022-12-29T08:35:27;4.50;;;2.93;;
68947;SDS011;55996;49.546;7.400;2022-12-29T08:37:53;5.67;;;3.40;;
68947;SDS011;55996;49.546;7.400;2022-12-29T08:40:18;5.77;;;3.00;;
68947;SDS011;55996;49.546;7.400;2022-12-29T08:42:43;3.30;;;3.00;;
68947;SDS011;55996;49.546;7.400;2022-12-29T08:45:09;3.37;;;2.53;;
68947;SDS011;55996;49.546;7.400;2022-12-29T08:47:35;4.90;;;2.83;;
68947;SDS011;55996;49.546;7.400;2022-12-29T08:50:00;6.33;;;2.63;;
68947;SDS011;55996;49.546;7.400;2022-12-29T08:52:25;5.47;;;2.87;;
68947;SDS011;55996;49.546;7.400;2022-12-29T08:54:51;4.60;;;2.80;;
68947;SDS011;55996;49.546;7.400;2022-12-29T08:57:16;3.87;;;2.50;;
68947;SDS011;55996;49.546;7.400;2022-12-29T08:59:42;4.50;;;2.47;;
68947;SDS011;55996;49.546;7.400;2022-12-29T09:02:11;4.27;;;2.90;;
68947;SDS011;55996;49.546;7.400;2022-12-29T09:04:37;3.37;;;2.30;;
68947;SDS011;55996;49.546;7.400;2022-12-29T09:07:02;2.93;;;2.43;;
68947;SDS011;55996;49.546;7.400;2022-12-29T09:09:28;3.10;;;2.10;;
68947;SDS011;55996;49.546;7.400;2022-12-29T09:11:53;3.20;;;2.33;;
68947;SDS011;55996;49.546;7.400;2022-12-29T09:14:19;3.83;;;2.17;;
68947;SDS011;55996;49.546;7.400;2022-12-29T09:16:46;2.13;;;1.90;;
68947;SDS011;55996;49.546;7.400;2022-12-29T09:19:30;3.60;;;2.33;;
68947;SDS011;55996;49.546;7.400;2022-12-29T09:21:56;4.43;;;2.10;;
68947;SDS011;55996;49.546;7.400;2022-12-29T09:24:21;3.43;;;2.30;;
68947;SDS011;55996;49.546;7.400;2022-12-29T09:26:46;3.23;;;2.10;;
68947;SDS011;55996;49.546;7.400;2022-12-29T09:29:12;3.33;;;2.27;;
68947;SDS011;55996;49.546;7.400;2022-12-29T09:31:37;2.93;;;2.10;;
68947;SDS011;55996;49.546;7.400;2022-12-29T09:34:03;2.57;;;1.80;;
68947;SDS011;55996;49.546;7.400;2022-12-29T09:36:28;1.97;;;1.77;;
68947;SDS011;55996;49.546;7.400;2022-12-29T09:38:53;2.30;;;1.93;;
68947;SDS011;55996;49.546;7.400;2022-12-29T09:41:24;3.37;;;2.70;;
68947;SDS011;55996;49.546;7.400;2022-12-29T09:46:43;3.97;;;1.73;;
68947;SDS011;55996;49.546;7.400;2022-12-29T09:52:05;2.90;;;1.60;;
68947;SDS011;55996;49.546;7.400;2022-12-29T09:54:51;2.37;;;1.60;;
68947;SDS011;55996;49.546;7.400;2022-12-29T09:57:22;3.50;;;1.60;;
68947;SDS011;55996;49.546;7.400;2022-12-29T10:00:18;1.33;;;1.20;;
68947;SDS011;55996;49.546;7.400;2022-12-29T10:03:11;2.40;;;1.37;;
68947;SDS011;55996;49.546;7.400;2022-12-29T10:24:39;3.57;;;1.27;;
68947;SDS011;55996;49.546;7.400;2022-12-29T10:27:09;1.50;;;1.40;;
68947;SDS011;55996;49.546;7.400;2022-12-29T10:29:37;2.30;;;1.40;;
68947;SDS011;55996;49.546;7.400;2022-12-29T10:32:25;2.67;;;1.50;;
68947;SDS011;55996;49.546;7.400;2022-12-29T10:35:10;2.60;;;1.47;;
68947;SDS011;55996;49.546;7.400;2022-12-29T10:37:55;3.00;;;1.60;;
68947;SDS011;55996;49.546;7.400;2022-12-29T10:40:38;3.70;;;1.53;;
68947;SDS011;55996;49.546;7.400;2022-12-29T10:45:54;2.60;;;1.70;;
68947;SDS011;55996;49.546;7.400;2022-12-29T10:48:29;3.47;;;1.73;;
68947;SDS011;55996;49.546;7.400;2022-12-29T10:50:57;2.50;;;1.97;;
68947;SDS011;55996;49.546;7.400;2022-12-29T10:53:26;2.53;;;1.60;;
68947;SDS011;55996;49.546;7.400;2022-12-29T10:56:00;3.13;;;1.90;;
68947;SDS011;55996;49.546;7.400;2022-12-29T10:58:27;2.20;;;1.53;;
68947;SDS011;55996;49.546;7.400;2022-12-29T11:00:54;1.77;;;1.60;;
68947;SDS011;55996;49.546;7.400;2022-12-29T11:06:12;2.47;;;1.70;;
68947;SDS011;55996;49.546;7.400;2022-12-29T11:08:52;4.87;;;1.73;;
68947;SDS011;55996;49.546;7.400;2022-12-29T11:11:22;2.50;;;1.43;;
68947;SDS011;55996;49.546;7.400;2022-12-29T11:13:54;2.73;;;1.57;;
68947;SDS011;55996;49.546;7.400;2022-12-29T11:16:27;4.13;;;1.33;;
68947;SDS011;55996;49.546;7.400;2022-12-29T11:18:55;4.93;;;1.43;;
68947;SDS011;55996;49.546;7.400;2022-12-29T11:21:39;4.27;;;1.77;;
68947;SDS011;55996;49.546;7.400;2022-12-29T11:26:55;5.33;;;2.10;;
68947;SDS011;55996;49.546;7.400;2022-12-29T11:29:39;3.77;;;1.77;;
68947;SDS011;55996;49.546;7.400;2022-12-29T11:32:11;4.90;;;1.90;;
68947;SDS011;55996;49.546;7.400;2022-12-29T11:34:42;4.07;;;2.27;;
68947;SDS011;55996;49.546;7.400;2022-12-29T11:42:23;2.97;;;1.40;;
68947;SDS011;55996;49.546;7.400;2022-12-29T11:45:21;2.80;;;1.70;;
68947;SDS011;55996;49.546;7.400;2022-12-29T11:47:50;4.43;;;1.93;;
68947;SDS011;55996;49.546;7.400;2022-12-29T11:50:23;4.57;;;1.60;;
68947;SDS011;55996;49.546;7.400;2022-12-29T11:52:57;2.60;;;2.00;;
68947;SDS011;55996;49.546;7.400;2022-12-29T11:55:25;3.73;;;1.67;;
68947;SDS011;55996;49.546;7.400;2022-12-29T11:57:53;4.53;;;2.00;;
68947;SDS011;55996;49.546;7.400;2022-12-29T12:00:24;5.23;;;1.97;;
68947;SDS011;55996;49.546;7.400;2022-12-29T12:03:03;6.00;;;1.87;;
68947;SDS011;55996;49.546;7.400;2022-12-29T12:05:35;5.13;;;1.70;;
68947;SDS011;55996;49.546;7.400;2022-12-29T12:10:52;2.97;;;1.23;;
68947;SDS011;55996;49.546;7.400;2022-12-29T12:13:25;3.33;;;1.53;;
68947;SDS011;55996;49.546;7.400;2022-12-29T12:18:39;4.13;;;1.43;;
68947;SDS011;55996;49.546;7.400;2022-12-29T12:29:37;4.13;;;1.77;;
68947;SDS011;55996;49.546;7.400;2022-12-29T12:35:11;3.80;;;1.63;;
68947;SDS011;55996;49.546;7.400;2022-12-29T12:57:34;3.30;;;1.47;;
68947;SDS011;55996;49.546;7.400;2022-12-29T13:00:11;3.37;;;1.50;;
68947;SDS011;55996;49.546;7.400;2022-12-29T13:13:50;4.60;;;1.63;;
68947;SDS011;55996;49.546;7.400;2022-12-29T13:23:48;4.70;;;1.60;;
68947;SDS011;55996;49.546;7.400;2022-12-29T13:26:25;3.03;;;1.53;;
68947;SDS011;55996;49.546;7.400;2022-12-29T13:29:26;2.87;;;1.73;;
68947;SDS011;55996;49.546;7.400;2022-12-29T13:32:16;3.03;;;1.40;;
68947;SDS011;55996;49.546;7.400;2022-12-29T13:37:36;4.37;;;1.40;;
68947;SDS011;55996;49.546;7.400;2022-12-29T13:40:26;3.77;;;1.30;;
68947;SDS011;55996;49.546;7.400;2022-12-29T13:42:59;3.80;;;1.50;;
68947;SDS011;55996;49.546;7.400;2022-12-29T13:45:28;2.57;;;1.40;;
68947;SDS011;55996;49.546;7.400;2022-12-29T13:48:05;3.70;;;1.50;;
68947;SDS011;55996;49.546;7.400;2022-12-29T13:50:39;2.63;;;1.27;;
68947;SDS011;55996;49.546;7.400;2022-12-29T13:53:19;4.40;;;1.53;;
68947;SDS011;55996;49.546;7.400;2022-12-29T13:55:59;5.10;;;1.47;;
68947;SDS011;55996;49.546;7.400;2022-12-29T14:04:12;2.23;;;1.00;;
68947;SDS011;55996;49.546;7.400;2022-12-29T14:06:39;3.50;;;1.50;;
68947;SDS011;55996;49.546;7.400;2022-12-29T14:09:06;2.40;;;1.27;;
68947;SDS011;55996;49.546;7.400;2022-12-29T14:11:52;2.50;;;1.20;;
68947;SDS011;55996;49.546;7.400;2022-12-29T14:14:22;4.13;;;0.93;;
68947;SDS011;55996;49.546;7.400;2022-12-29T14:16:50;3.30;;;1.17;;
68947;SDS011;55996;49.546;7.400;2022-12-29T14:19:35;3.63;;;1.43;;
68947;SDS011;55996;49.546;7.400;2022-12-29T14:22:06;3.10;;;1.30;;
68947;SDS011;55996;49.546;7.400;2022-12-29T14:26:57;4.33;;;1.40;;
68947;SDS011;55996;49.546;7.400;2022-12-29T14:31:48;4.57;;;1.47;;
68947;SDS011;55996;49.546;7.400;2022-12-29T14:34:15;2.93;;;1.20;;
68947;SDS011;55996;49.546;7.400;2022-12-29T14:36:54;5.60;;;1.47;;
68947;SDS011;55996;49.546;7.400;2022-12-29T14:39:36;3.70;;;1.50;;
68947;SDS011;55996;49.546;7.400;2022-12-29T14:44:45;1.80;;;1.20;;
68947;SDS011;55996;49.546;7.400;2022-12-29T14:47:11;2.20;;;1.20;;
68947;SDS011;55996;49.546;7.400;2022-12-29T14:49:51;4.77;;;1.30;;
68947;SDS011;55996;49.546;7.400;2022-12-29T14:52:24;3.63;;;1.30;;
68947;SDS011;55996;49.546;7.400;2022-12-29T14:54:54;5.03;;;1.20;;
68947;SDS011;55996;49.546;7.400;2022-12-29T15:00:02;2.73;;;1.50;;
68947;SDS011;55996;49.546;7.400;2022-12-29T15:02:32;3.00;;;1.50;;
68947;SDS011;55996;49.546;7.400;2022-12-29T15:05:03;3.83;;;1.47;;
68947;SDS011;55996;49.546;7.400;2022-12-29T15:07:31;5.63;;;1.87;;
68947;SDS011;55996;49.546;7.400;2022-12-29T15:10:08;4.40;;;1.50;;
68947;SDS011;55996;49.546;7.400;2022-12-29T15:12:45;3.43;;;1.27;;
68947;SDS011;55996;49.546;7.400;2022-12-29T15:17:43;8.27;;;1.90;;
68947;SDS011;55996;49.546;7.400;2022-12-29T15:22:56;4.77;;;2.20;;
68947;SDS011;55996;49.546;7.400;2022-12-29T15:25:25;6.93;;;3.00;;
68947;SDS011;55996;49.546;7.400;2022-12-29T15:27:52;5.23;;;2.17;;
68947;SDS011;55996;49.546;7.400;2022-12-29T15:30:26;8.33;;;2.40;;
68947;SDS011;55996;49.546;7.400;2022-12-29T15:32:52;7.40;;;1.70;;
68947;SDS011;55996;49.546;7.400;2022-12-29T15:35:25;5.60;;;1.90;;
68947;SDS011;55996;49.546;7.400;2022-12-29T15:37:53;11.03;;;3.50;;
68947;SDS011;55996;49.546;7.400;2022-12-29T15:40:23;6.47;;;2.10;;
68947;SDS011;55996;49.546;7.400;2022-12-29T15:45:45;6.63;;;1.93;;
68947;SDS011;55996;49.546;7.400;2022-12-29T15:48:16;6.90;;;2.20;;
68947;SDS011;55996;49.546;7.400;2022-12-29T15:50:44;8.27;;;2.30;;
68947;SDS011;55996;49.546;7.400;2022-12-29T15:53:11;7.10;;;2.40;;
68947;SDS011;55996;49.546;7.400;2022-12-29T15:55:43;6.80;;;1.97;;
68947;SDS011;55996;49.546;7.400;2022-12-29T15:58:20;7.03;;;2.03;;
68947;SDS011;55996;49.546;7.400;2022-12-29T16:00:51;7.53;;;2.77;;
68947;SDS011;55996;49.546;7.400;2022-12-29T16:03:19;5.43;;;2.00;;
68947;SDS011;55996;49.546;7.400;2022-12-29T16:05:54;5.67;;;2.23;;
68947;SDS011;55996;49.546;7.400;2022-12-29T16:08:29;7.67;;;2.23;;
68947;SDS011;55996;49.546;7.400;2022-12-29T16:11:02;8.00;;;1.90;;
68947;SDS011;55996;49.546;7.400;2022-12-29T16:13:33;6.23;;;2.20;;
68947;SDS011;55996;49.546;7.400;2022-12-29T16:16:13;6.07;;;2.73;;
68947;SDS011;55996;49.546;7.400;2022-12-29T16:18:44;8.73;;;2.40;;
68947;SDS011;55996;49.546;7.400;2022-12-29T16:21:18;9.87;;;2.60;;
68947;SDS011;55996;49.546;7.400;2022-12-29T16:23:48;6.27;;;1.80;;
68947;SDS011;55996;49.546;7.400;2022-12-29T16:26:16;5.87;;;1.93;;
68947;SDS011;55996;49.546;7.400;2022-12-29T16:28:43;5.47;;;2.10;;
68947;SDS011;55996;49.546;7.400;2022-12-29T16:31:25;8.33;;;2.50;;
68947;SDS011;55996;49.546;7.400;2022-12-29T16:34:09;6.57;;;2.20;;
68947;SDS011;55996;49.546;7.400;2022-12-29T16:36:40;7.27;;;1.90;;
68947;SDS011;55996;49.546;7.400;2022-12-29T16:39:24;5.77;;;2.00;;
68947;SDS011;55996;49.546;7.400;2022-12-29T16:41:53;7.53;;;2.10;;
68947;SDS011;55996;49.546;7.400;2022-12-29T16:44:26;7.47;;;1.70;;
68947;SDS011;55996;49.546;7.400;2022-12-29T16:47:03;5.83;;;2.03;;
68947;SDS011;55996;49.546;7.400;2022-12-29T16:49:35;6.67;;;1.60;;
68947;SDS011;55996;49.546;7.400;2022-12-29T16:52:10;8.93;;;2.23;;
68947;SDS011;55996;49.546;7.400;2022-12-29T16:54:49;7.63;;;2.30;;
68947;SDS011;55996;49.546;7.400;2022-12-29T16:57:23;11.27;;;2.20;;
68947;SDS011;55996;49.546;7.400;2022-12-29T16:59:51;10.00;;;2.20;;
68947;SDS011;55996;49.546;7.400;2022-12-29T17:02:21;17.70;;;2.73;;
68947;SDS011;55996;49.546;7.400;2022-12-29T17:04:49;9.17;;;2.50;;
68947;SDS011;55996;49.546;7.400;2022-12-29T17:07:33;9.13;;;2.57;;
68947;SDS011;55996;49.546;7.400;2022-12-29T17:10:05;10.70;;;2.37;;
68947;SDS011;55996;49.546;7.400;2022-12-29T17:12:30;8.57;;;2.53;;
68947;SDS011;55996;49.546;7.400;2022-12-29T17:15:03;7.63;;;2.53;;
68947;SDS011;55996;49.546;7.400;2022-12-29T17:17:47;8.27;;;2.63;;
68947;SDS011;55996;49.546;7.400;2022-12-29T17:20:22;6.83;;;2.40;;
68947;SDS011;55996;49.546;7.400;2022-12-29T17:22:49;9.17;;;2.23;;
68947;SDS011;55996;49.546;7.400;2022-12-29T17:25:18;9.27;;;2.30;;
68947;SDS011;55996;49.546;7.400;2022-12-29T17:27:51;9.87;;;2.30;;
68947;SDS011;55996;49.546;7.400;2022-12-29T17:30:24;7.80;;;2.33;;
68947;SDS011;55996;49.546;7.400;2022-12-29T17:32:56;6.73;;;2.43;;
68947;SDS011;55996;49.546;7.400;2022-12-29T17:35:25;7.17;;;2.07;;
68947;SDS011;55996;49.546;7.400;2022-12-29T17:37:50;9.53;;;2.67;;
68947;SDS011;55996;49.546;7.400;2022-12-29T17:40:17;8.60;;;2.53;;
68947;SDS011;55996;49.546;7.400;2022-12-29T17:42:48;7.97;;;2.37;;
68947;SDS011;55996;49.546;7.400;2022-12-29T17:45:17;13.63;;;3.10;;
68947;SDS011;55996;49.546;7.400;2022-12-29T17:47:45;8.63;;;2.50;;
68947;SDS011;55996;49.546;7.400;2022-12-29T17:50:11;11.07;;;3.07;;